Time;durP1;ratioP1;P1;durP2;ratioP2;P2;SDS_P1;SDS_P2;PMS_P1;PMS_P2;Temp;Humidity;BMP_temperature;BMP_pressure;BME280_temperature;BME280_humidity;BME280_pressure;Samples;Min_cycle;Max_cycle;Signal;HPM_P1;HPM_P2
2023/11/22 00:00:26;;;;;;;1.88;1.77;;;;;;;4.93;100.00;96029.00;1041524;28;20028;-74
2023/11/22 00:00:56;;;;;;;1.45;1.27;;;;;;;4.95;100.00;96037.34;1034817;28;20078;-76
2023/11/22 00:01:27;;;;;;;2.47;2.28;;;;;;;4.90;100.00;96029.44;1038026;28;20551;-75
2023/11/22 00:01:57;;;;;;;1.65;1.52;;;;;;;4.95;100.00;96037.34;1034431;28;20051;-76
2023/11/22 00:02:28;;;;;;;1.33;1.23;;;;;;;4.95;100.00;96033.97;1030559;28;20045;-76
2023/11/22 00:02:59;;;;;;;1.80;1.65;;;;;;;4.94;100.00;96033.19;1038737;28;20706;-75
2023/11/22 00:03:29;;;;;;;1.65;1.20;;;;;;;4.94;100.00;96033.19;1030627;28;20276;-76
2023/11/22 00:04:00;;;;;;;1.25;1.25;;;;;;;4.96;100.00;96035.56;1030625;28;20050;-78
2023/11/22 00:04:30;;;;;;;2.35;2.15;;;;;;;4.92;100.00;96024.00;1030539;28;20026;-76
2023/11/22 00:05:01;;;;;;;2.53;1.13;;;;;;;4.93;100.00;96025.63;1030725;28;20026;-77
2023/11/22 00:05:31;;;;;;;1.65;1.55;;;;;;;4.95;100.00;96029.56;1030408;28;20018;-76
2023/11/22 00:06:02;;;;;;;15.10;2.42;;;;;;;4.99;100.00;96029.13;1030695;28;20792;-76
2023/11/22 00:06:32;;;;;;;1.52;0.88;;;;;;;4.97;100.00;96032.75;1034535;28;20779;-77
2023/11/22 00:07:03;;;;;;;2.25;1.63;;;;;;;4.93;100.00;96020.41;1034499;28;20053;-76
2023/11/22 00:07:33;;;;;;;0.82;0.82;;;;;;;4.86;100.00;96010.09;1034670;28;20029;-74
2023/11/22 00:08:04;;;;;;;1.63;1.50;;;;;;;4.98;100.00;96030.94;1038654;28;20025;-76
2023/11/22 00:08:34;;;;;;;9.25;2.28;;;;;;;4.98;100.00;96033.53;1034362;28;20041;-76
2023/11/22 00:09:05;;;;;;;1.05;1.02;;;;;;;5.00;100.00;96035.91;1022558;28;20020;-75
2023/11/22 00:09:35;;;;;;;2.17;1.63;;;;;;;4.94;100.00;96029.78;1026001;28;20031;-74
2023/11/22 00:10:08;;;;;;;1.55;1.38;;;;;;;4.93;100.00;96023.00;1022296;28;20055;-77
2023/11/22 00:10:39;;;;;;;2.50;2.03;;;;;;;4.96;100.00;96030.34;1023555;28;20027;-76
2023/11/22 00:11:09;;;;;;;2.05;1.95;;;;;;;4.97;100.00;96032.75;1034480;28;20805;-77
2023/11/22 00:11:39;;;;;;;1.73;1.00;;;;;;;4.99;100.00;96039.53;1030679;28;20302;-76
2023/11/22 00:12:10;;;;;;;1.48;0.98;;;;;;;4.88;100.00;96023.66;1034527;28;20018;-76
2023/11/22 00:12:41;;;;;;;1.80;1.48;;;;;;;4.95;100.00;96031.38;1026532;28;20019;-75
2023/11/22 00:13:11;;;;;;;1.10;1.10;;;;;;;4.90;100.00;96034.63;1022519;28;20156;-78
2023/11/22 00:13:42;;;;;;;0.80;0.80;;;;;;;4.93;100.00;96034.19;1026141;28;20372;-75
2023/11/22 00:14:12;;;;;;;3.63;1.85;;;;;;;4.96;100.00;96040.75;1026600;28;20076;-76
2023/11/22 00:14:43;;;;;;;2.08;1.35;;;;;;;4.88;100.00;96022.88;1034529;28;20037;-76
2023/11/22 00:15:17;;;;;;;1.17;1.05;;;;;;;4.87;100.00;96022.06;1030450;28;20030;-76
2023/11/22 00:15:50;;;;;;;2.42;2.28;;;;;;;4.89;100.00;96025.22;1038377;28;20018;-76
2023/11/22 00:16:21;;;;;;;1.25;1.23;;;;;;;4.86;100.00;96019.69;1031389;28;20317;-76
2023/11/22 00:16:51;;;;;;;0.95;0.82;;;;;;;4.87;100.00;96024.69;1026504;28;20297;-76
2023/11/22 00:17:23;;;;;;;0.90;0.85;;;;;;;4.93;100.00;96034.19;1030156;28;20469;-76
2023/11/22 00:17:53;;;;;;;1.85;1.75;;;;;;;4.89;100.00;96030.44;1030456;28;20186;-74
2023/11/22 00:18:26;;;;;;;2.65;1.35;;;;;;;4.86;100.00;96023.09;1030771;28;20265;-77
2023/11/22 00:18:56;;;;;;;3.75;2.75;;;;;;;4.90;100.00;96026.84;1030427;28;20041;-76
2023/11/22 00:19:30;;;;;;;18.05;1.92;;;;;;;4.83;100.00;96018.34;1027160;28;20702;-75
2023/11/22 00:20:05;;;;;;;1.48;1.27;;;;;;;4.84;100.00;96019.13;1022475;29;20275;-77
2023/11/22 00:20:36;;;;;;;2.05;1.60;;;;;;;4.90;100.00;96026.84;1027685;28;20033;-75
2023/11/22 00:21:06;;;;;;;0.95;0.90;;;;;;;4.89;100.00;96030.44;1026407;28;20293;-76
2023/11/22 00:21:37;;;;;;;1.73;1.10;;;;;;;4.84;100.00;96019.13;1025860;28;20309;-76
2023/11/22 00:22:13;;;;;;;2.42;1.83;;;;;;;4.91;100.00;96031.03;1034248;28;20041;-78
2023/11/22 00:22:45;;;;;;;1.67;1.50;;;;;;;4.88;100.00;96023.66;1035213;28;20034;-76
2023/11/22 00:23:18;;;;;;;0.50;0.50;;;;;;;4.92;100.00;96030.00;1034465;28;20265;-77
2023/11/22 00:23:48;;;;;;;2.47;0.98;;;;;;;4.92;100.00;96032.59;1034404;28;20253;-74
2023/11/22 00:24:19;;;;;;;2.17;1.40;;;;;;;4.93;100.00;96033.41;1039696;28;20260;-76
2023/11/22 00:24:50;;;;;;;1.50;1.05;;;;;;;4.92;100.00;96032.59;1035517;28;20621;-75
2023/11/22 00:25:20;;;;;;;1.25;0.80;;;;;;;4.89;100.00;96025.22;1038589;28;20044;-76
2023/11/22 00:25:52;;;;;;;3.78;2.20;;;;;;;4.86;100.00;96014.47;1034456;28;20064;-76
2023/11/22 00:26:22;;;;;;;2.25;2.08;;;;;;;4.88;100.00;96025.47;1034477;28;20451;-76
2023/11/22 00:26:53;;;;;;;3.67;2.85;;;;;;;4.84;100.00;96017.31;1030245;28;20265;-77
2023/11/22 00:27:23;;;;;;;2.22;2.03;;;;;;;4.76;100.00;96002.00;1030615;28;20093;-77
2023/11/22 00:27:55;;;;;;;1.10;1.08;;;;;;;4.93;100.00;96025.63;1029191;28;20030;-74
2023/11/22 00:28:26;;;;;;;1.20;1.15;;;;;;;4.96;100.00;96036.38;1038625;28;20583;-78
2023/11/22 00:28:57;;;;;;;3.20;2.42;;;;;;;4.94;100.00;96022.78;1042541;28;20342;-77
2023/11/22 00:29:27;;;;;;;2.92;2.13;;;;;;;4.95;100.00;96021.75;1038217;28;20264;-76
2023/11/22 00:29:58;;;;;;;0.93;0.93;;;;;;;4.88;100.00;96026.25;1030831;28;20506;-75
2023/11/22 00:30:28;;;;;;;3.30;2.45;;;;;;;4.94;100.00;96025.38;1034560;28;20046;-75
2023/11/22 00:30:59;;;;;;;1.85;1.02;;;;;;;4.97;100.00;96032.75;1030424;28;20474;-75
2023/11/22 00:31:29;;;;;;;3.50;1.65;;;;;;;4.95;100.00;96031.38;1033751;28;20025;-77
2023/11/22 00:32:00;;;;;;;2.90;2.05;;;;;;;4.93;100.00;96026.41;1030489;28;20029;-77
2023/11/22 00:32:30;;;;;;;3.00;1.70;;;;;;;4.93;100.00;96017.81;1023985;28;20546;-77
2023/11/22 00:33:01;;;;;;;1.98;1.60;;;;;;;4.91;100.00;96023.22;1030398;28;20398;-76
2023/11/22 00:33:31;;;;;;;1.25;1.25;;;;;;;5.00;100.00;96025.50;1030549;28;20030;-77
2023/11/22 00:34:02;;;;;;;1.05;1.05;;;;;;;4.96;100.00;96036.38;1030461;28;20061;-76
2023/11/22 00:34:33;;;;;;;2.13;1.52;;;;;;;4.96;100.00;96031.16;1030527;28;20098;-77
2023/11/22 00:35:03;;;;;;;1.88;1.77;;;;;;;4.96;100.00;96031.16;1038821;28;20048;-75
2023/11/22 00:35:34;;;;;;;2.30;1.60;;;;;;;4.95;100.00;96028.78;1046788;28;20024;-75
2023/11/22 00:36:07;;;;;;;1.95;1.80;;;;;;;4.95;100.00;96032.16;1042460;28;20493;-75
2023/11/22 00:36:38;;;;;;;1.48;1.38;;;;;;;4.92;100.00;96034.41;1042533;28;20095;-77
2023/11/22 00:37:08;;;;;;;2.08;1.65;;;;;;;4.96;100.00;96030.34;1042655;28;20267;-76
2023/11/22 00:37:39;;;;;;;10.65;2.63;;;;;;;4.96;100.00;96025.16;1041174;28;20810;-75
2023/11/22 00:38:10;;;;;;;1.98;1.83;;;;;;;4.88;100.00;96021.06;1034987;28;20038;-75
2023/11/22 00:38:40;;;;;;;1.90;1.33;;;;;;;4.92;100.00;96024.00;1038628;28;20048;-75
2023/11/22 00:39:13;;;;;;;0.90;0.88;;;;;;;4.94;100.00;96032.41;1034747;28;20041;-75
2023/11/22 00:39:43;;;;;;;1.58;1.48;;;;;;;4.86;100.00;96014.47;1042653;28;20033;-74
2023/11/22 00:40:14;;;;;;;1.05;1.05;;;;;;;4.96;100.00;96031.16;1038557;28;20264;-75
2023/11/22 00:40:44;;;;;;;1.55;1.45;;;;;;;4.95;100.00;96029.56;1038803;28;20116;-75
2023/11/22 00:41:15;;;;;;;1.75;1.42;;;;;;;4.93;100.00;96031.59;1029675;28;20058;-77
2023/11/22 00:41:46;;;;;;;1.35;1.25;;;;;;;4.94;100.00;96025.38;1038466;28;20029;-76
2023/11/22 00:42:20;;;;;;;2.53;1.98;;;;;;;4.89;100.00;96025.22;1038715;28;20025;-75
2023/11/22 00:42:50;;;;;;;0.77;0.77;;;;;;;4.93;100.00;96026.41;1031068;28;20522;-76
2023/11/22 00:43:21;;;;;;;1.65;1.20;;;;;;;4.87;100.00;96022.06;1031531;28;20368;-77
2023/11/22 00:43:51;;;;;;;2.08;1.58;;;;;;;4.93;100.00;96031.59;1034731;28;20488;-77
2023/11/22 00:44:21;;;;;;;1.15;1.15;;;;;;;4.87;100.00;96019.47;1035287;28;20111;-75
2023/11/22 00:44:52;;;;;;;4.13;2.47;;;;;;;4.94;100.00;96027.97;1034540;28;20142;-74
2023/11/22 00:45:23;;;;;;;1.90;1.70;;;;;;;4.88;100.00;96023.66;1031493;28;20545;-77
2023/11/22 00:45:57;;;;;;;3.78;1.80;;;;;;;4.90;100.00;96020.84;1026719;28;20026;-75
2023/11/22 00:46:27;;;;;;;1.55;1.45;;;;;;;4.97;100.00;96029.34;1028390;28;20118;-76
2023/11/22 00:46:58;;;;;;;1.60;1.50;;;;;;;4.98;100.00;96033.53;1035347;28;20803;-76
2023/11/22 00:47:28;;;;;;;0.82;0.82;;;;;;;4.92;100.00;96024.78;1035082;28;20037;-76
2023/11/22 00:47:58;;;;;;;5.20;2.05;;;;;;;4.94;100.00;96032.41;1031851;28;20029;-74
2023/11/22 00:48:29;;;;;;;0.90;0.90;;;;;;;4.94;100.00;96030.59;1026395;28;20042;-74
2023/11/22 00:48:59;;;;;;;3.45;2.25;;;;;;;4.95;100.00;96031.38;1022555;29;20039;-75
2023/11/22 00:49:30;;;;;;;0.40;0.40;;;;;;;4.96;100.00;96036.38;1022315;28;20547;-75
2023/11/22 00:50:01;;;;;;;1.25;1.15;;;;;;;4.96;100.00;96038.16;1022585;28;20119;-74
2023/11/22 00:50:32;;;;;;;2.00;1.85;;;;;;;4.91;100.00;96028.41;1026756;28;20034;-76
2023/11/22 00:51:08;;;;;;;2.65;2.40;;;;;;;4.87;100.00;96026.50;1030717;28;20276;-77
2023/11/22 00:51:38;;;;;;;1.92;1.73;;;;;;;4.90;100.00;96032.03;1033785;28;20092;-77
2023/11/22 00:52:09;;;;;;;1.23;1.15;;;;;;;4.91;100.00;96038.81;1038447;28;20341;-75
2023/11/22 00:52:39;;;;;;;3.70;1.42;;;;;;;4.96;100.00;96041.56;1030645;28;20026;-76
2023/11/22 00:53:10;;;;;;;2.83;1.40;;;;;;;4.92;100.00;96045.59;1026368;28;20757;-75
2023/11/22 00:53:49;;;;;;;0.75;0.75;;;;;;;4.92;100.00;96037.78;1030422;28;20121;-75
2023/11/22 00:54:20;;;;;;;2.28;1.65;;;;;;;4.89;100.00;96025.22;1035912;28;20268;-76
2023/11/22 00:54:51;;;;;;;5.07;1.45;;;;;;;4.94;100.00;96032.41;1030815;28;20105;-74
2023/11/22 00:55:21;;;;;;;2.00;1.70;;;;;;;4.91;100.00;96032.81;1022500;29;20035;-78
2023/11/22 00:55:52;;;;;;;2.10;1.90;;;;;;;4.97;100.00;96035.34;1022319;29;20031;-75
2023/11/22 00:56:23;;;;;;;1.98;1.75;;;;;;;4.90;100.00;96026.06;1023254;28;20166;-74
2023/11/22 00:56:53;;;;;;;2.00;1.75;;;;;;;4.89;100.00;96025.22;1034888;28;20261;-76
2023/11/22 00:57:24;;;;;;;11.27;1.35;;;;;;;4.94;100.00;96038.38;1038773;28;20025;-76
2023/11/22 00:57:56;;;;;;;0.93;0.93;;;;;;;4.85;100.00;96034.50;1038215;28;20505;-77
2023/11/22 00:58:27;;;;;;;1.63;1.52;;;;;;;4.93;100.00;96033.41;1034254;28;20022;-76
2023/11/22 00:58:59;;;;;;;0.73;0.73;;;;;;;4.91;100.00;96040.63;1034969;28;20265;-76
2023/11/22 00:59:30;;;;;;;1.88;1.35;;;;;;;4.92;100.00;96040.41;1038665;28;20033;-75
2023/11/22 01:00:00;;;;;;;1.08;1.00;;;;;;;4.93;100.00;96036.81;1035036;28;20660;-74
2023/11/22 01:00:31;;;;;;;2.95;1.85;;;;;;;4.88;100.00;96034.06;1042709;28;20029;-74
2023/11/22 01:01:01;;;;;;;2.40;2.20;;;;;;;4.88;100.00;96039.25;1034698;28;20068;-76
2023/11/22 01:01:32;;;;;;;0.95;0.95;;;;;;;4.94;100.00;96043.59;1029714;28;20092;-78
2023/11/22 01:02:02;;;;;;;1.13;0.98;;;;;;;4.89;100.00;96027.84;1030426;28;20030;-75
2023/11/22 01:02:33;;;;;;;3.47;1.70;;;;;;;4.96;100.00;96041.56;1034385;28;20036;-76
2023/11/22 01:03:04;;;;;;;2.42;1.23;;;;;;;4.91;100.00;96033.63;1034452;28;20034;-75
2023/11/22 01:03:35;;;;;;;1.05;0.95;;;;;;;4.95;100.00;96039.16;1034514;28;20026;-75
2023/11/22 01:04:07;;;;;;;2.40;1.08;;;;;;;4.88;100.00;96026.25;1034725;28;20272;-75
2023/11/22 01:04:37;;;;;;;1.25;1.25;;;;;;;4.98;100.00;96041.34;1030533;28;20094;-75
2023/11/22 01:05:11;;;;;;;0.43;0.40;;;;;;;4.90;100.00;96029.44;1030746;28;20273;-76
2023/11/22 01:05:42;;;;;;;1.15;1.05;;;;;;;4.96;100.00;96040.75;1030917;28;20054;-76
2023/11/22 01:06:13;;;;;;;2.63;0.70;;;;;;;4.91;100.00;96033.63;1035124;28;20261;-75
2023/11/22 01:06:43;;;;;;;2.10;1.95;;;;;;;4.96;100.00;96046.78;1026982;28;20298;-79
2023/11/22 01:07:14;;;;;;;1.48;1.38;;;;;;;4.96;100.00;96044.16;1027091;28;20023;-76
2023/11/22 01:07:45;;;;;;;2.85;1.77;;;;;;;4.96;100.00;96046.78;1034679;28;20823;-74
2023/11/22 01:08:15;;;;;;;7.53;2.03;;;;;;;4.99;100.00;96044.72;1030960;28;20108;-76
2023/11/22 01:08:47;;;;;;;1.95;1.65;;;;;;;4.98;100.00;96051.75;1038491;28;20317;-74
2023/11/22 01:09:21;;;;;;;2.72;1.90;;;;;;;4.92;100.00;96043.00;1042781;28;20025;-75
2023/11/22 01:09:53;;;;;;;0.98;0.98;;;;;;;4.96;100.00;96044.16;1030215;28;20356;-76
2023/11/22 01:10:23;;;;;;;0.95;0.82;;;;;;;5.00;100.00;96048.91;1030886;28;20034;-77
2023/11/22 01:10:54;;;;;;;0.65;0.55;;;;;;;4.96;100.00;96051.16;1034213;28;20779;-77
2023/11/22 01:11:24;;;;;;;3.78;1.38;;;;;;;4.91;100.00;96041.41;1034363;28;20026;-78
2023/11/22 01:11:54;;;;;;;2.92;2.72;;;;;;;4.91;100.00;96049.22;1034264;28;20700;-76
2023/11/22 01:12:25;;;;;;;8.10;1.73;;;;;;;4.96;100.00;96046.78;1034427;28;20072;-76
2023/11/22 01:12:55;;;;;;;0.82;0.82;;;;;;;4.98;100.00;96049.13;1033758;28;20041;-75
2023/11/22 01:13:26;;;;;;;2.22;1.90;;;;;;;4.97;100.00;96050.94;1034318;28;20030;-76
2023/11/22 01:13:56;;;;;;;3.63;2.35;;;;;;;5.01;100.00;96053.91;1035877;28;20030;-77
2023/11/22 01:14:27;;;;;;;2.58;1.05;;;;;;;4.90;100.00;96034.63;1030254;28;20406;-75
2023/11/22 01:14:57;;;;;;;3.03;1.67;;;;;;;4.97;100.00;96037.94;1022352;28;20181;-78
2023/11/22 01:15:28;;;;;;;1.85;1.45;;;;;;;4.94;100.00;96042.78;1027441;28;20045;-75
2023/11/22 01:15:58;;;;;;;3.30;1.30;;;;;;;4.97;100.00;96048.34;1030484;28;20037;-77
2023/11/22 01:16:29;;;;;;;6.22;1.85;;;;;;;5.01;100.00;96056.50;1030191;28;20445;-75
2023/11/22 01:17:03;;;;;;;1.92;1.38;;;;;;;4.97;100.00;96047.56;1026470;28;20026;-75
2023/11/22 01:17:34;;;;;;;1.45;1.15;;;;;;;4.95;100.00;96045.16;1034273;28;20296;-74
2023/11/22 01:18:04;;;;;;;0.90;0.90;;;;;;;5.02;100.00;96049.50;1034523;28;20048;-76
2023/11/22 01:18:35;;;;;;;4.60;2.08;;;;;;;5.05;100.00;96054.25;1034313;28;20698;-75
2023/11/22 01:19:06;;;;;;;1.20;1.20;;;;;;;4.96;100.00;96045.94;1038377;28;20025;-76
2023/11/22 01:19:39;;;;;;;2.55;2.13;;;;;;;5.01;100.00;96047.91;1038865;28;20460;-76
2023/11/22 01:20:11;;;;;;;1.55;1.35;;;;;;;4.93;100.00;96039.41;1038776;28;20276;-77
2023/11/22 01:20:41;;;;;;;1.73;1.42;;;;;;;5.02;100.00;96055.47;1031854;28;20276;-76
2023/11/22 01:21:12;;;;;;;3.35;2.20;;;;;;;5.01;100.00;96058.31;1029839;28;20277;-73
2023/11/22 01:21:42;;;;;;;2.42;2.22;;;;;;;4.99;100.00;96055.91;1026644;28;20041;-76
2023/11/22 01:22:13;;;;;;;4.03;2.08;;;;;;;4.97;100.00;96050.94;1032428;28;20041;-74
2023/11/22 01:22:43;;;;;;;2.72;2.17;;;;;;;4.94;100.00;96059.19;1042574;28;20108;-75
2023/11/22 01:23:14;;;;;;;3.28;2.15;;;;;;;5.00;100.00;96051.50;1034224;28;20022;-75
2023/11/22 01:23:45;;;;;;;1.52;0.98;;;;;;;4.93;100.00;96043.81;1038588;28;20034;-75
2023/11/22 01:24:16;;;;;;;3.25;1.95;;;;;;;4.91;100.00;96049.22;1034395;28;20547;-75
2023/11/22 01:24:47;;;;;;;3.13;2.15;;;;;;;4.97;100.00;96061.34;1030608;28;20277;-75
2023/11/22 01:25:17;;;;;;;2.45;1.35;;;;;;;4.92;100.00;96052.59;1034818;28;20057;-75
2023/11/22 01:25:48;;;;;;;1.67;1.48;;;;;;;4.95;100.00;96058.16;1034022;28;21224;-78
2023/11/22 01:26:18;;;;;;;3.10;1.75;;;;;;;4.91;100.00;96057.03;1030585;28;20034;-76
2023/11/22 01:26:49;;;;;;;3.70;1.90;;;;;;;4.88;100.00;96049.66;1034482;28;20030;-76
2023/11/22 01:27:20;;;;;;;1.88;1.73;;;;;;;4.96;100.00;96061.56;1034212;28;20038;-78
2023/11/22 01:27:50;;;;;;;2.25;1.55;;;;;;;4.92;100.00;96056.00;1034426;28;20034;-78
2023/11/22 01:28:21;;;;;;;1.75;1.08;;;;;;;4.92;100.00;96060.41;1034557;28;20037;-77
2023/11/22 01:28:52;;;;;;;1.20;0.90;;;;;;;4.94;100.00;96059.19;1034597;28;20033;-76
2023/11/22 01:29:23;;;;;;;2.30;2.08;;;;;;;4.88;100.00;96052.25;1034198;28;20026;-77
2023/11/22 01:29:54;;;;;;;0.75;0.75;;;;;;;4.94;100.00;96061.00;1028662;28;20266;-77
2023/11/22 01:30:24;;;;;;;1.55;0.45;;;;;;;4.96;100.00;96058.94;1030707;28;20277;-77
2023/11/22 01:30:55;;;;;;;2.38;1.02;;;;;;;4.92;100.00;96058.59;1027934;28;20034;-78
2023/11/22 01:31:27;;;;;;;0.63;0.63;;;;;;;4.83;100.00;96041.72;1029649;28;20030;-75
2023/11/22 01:31:57;;;;;;;3.70;1.88;;;;;;;4.97;100.00;96063.94;1034529;28;20069;-76
2023/11/22 01:32:28;;;;;;;3.40;1.60;;;;;;;4.90;100.00;96052.06;1031608;28;20269;-76
2023/11/22 01:32:58;;;;;;;1.85;1.73;;;;;;;4.91;100.00;96049.22;1034442;28;20060;-75
2023/11/22 01:33:29;;;;;;;0.77;0.77;;;;;;;4.99;100.00;96057.72;1034273;28;20041;-75
2023/11/22 01:34:00;;;;;;;1.80;1.58;;;;;;;5.00;100.00;96067.09;1030217;28;20026;-76
2023/11/22 01:34:30;;;;;;;3.60;1.70;;;;;;;4.99;100.00;96065.53;1030064;28;20596;-75
2023/11/22 01:35:01;;;;;;;2.42;1.27;;;;;;;4.98;100.00;96059.53;1026319;28;20063;-78
2023/11/22 01:35:35;;;;;;;1.38;1.15;;;;;;;5.00;100.00;96061.91;1030603;28;20030;-75
2023/11/22 01:36:05;;;;;;;12.02;3.78;;;;;;;5.00;100.00;96062.72;1026278;28;20274;-76
2023/11/22 01:36:41;;;;;;;2.90;2.70;;;;;;;4.94;100.00;96066.19;1026967;28;20062;-76
2023/11/22 01:37:12;;;;;;;0.45;0.45;;;;;;;4.95;100.00;96060.75;1027576;28;20057;-76
2023/11/22 01:37:42;;;;;;;0.80;0.50;;;;;;;4.98;100.00;96064.75;1030996;28;20292;-76
2023/11/22 01:38:13;;;;;;;0.60;0.60;;;;;;;4.98;100.00;96064.75;1030207;28;20039;-75
2023/11/22 01:38:44;;;;;;;0.40;0.40;;;;;;;4.99;100.00;96066.31;1026311;28;20114;-74
2023/11/22 01:39:14;;;;;;;1.52;1.42;;;;;;;4.97;100.00;96057.97;1032217;28;20026;-75
2023/11/22 01:39:46;;;;;;;1.25;1.23;;;;;;;5.00;100.00;96065.31;1034439;28;20567;-75
2023/11/22 01:40:19;;;;;;;0.88;0.88;;;;;;;4.96;100.00;96072.78;1038982;28;20034;-75
2023/11/22 01:40:51;;;;;;;1.35;1.05;;;;;;;4.95;100.00;96076.38;1038139;28;20739;-74
2023/11/22 01:41:21;;;;;;;1.55;1.30;;;;;;;4.88;100.00;96065.25;1038532;28;20706;-75
2023/11/22 01:41:52;;;;;;;1.08;1.00;;;;;;;4.90;100.00;96078.06;1038378;28;20272;-76
2023/11/22 01:42:23;;;;;;;0.70;0.70;;;;;;;4.76;100.00;96056.59;1039466;28;20033;-72
2023/11/22 01:42:54;;;;;;;0.30;0.30;;;;;;;4.82;100.00;96076.50;1035162;28;20042;-77
2023/11/22 01:43:26;;;;;;;0.10;0.10;;;;;;;4.76;100.00;96064.38;1034301;28;20268;-75
2023/11/22 01:43:57;;;;;;;0.45;0.45;;;;;;;4.76;100.00;96074.78;1030283;28;20092;-74
2023/11/22 01:44:28;;;;;;;0.90;0.82;;;;;;;4.70;100.00;96078.28;1030086;28;20353;-76
2023/11/22 01:44:58;;;;;;;0.20;0.20;;;;;;;4.68;100.00;96082.88;1030319;28;20289;-75
2023/11/22 01:45:29;;;;;;;0.90;0.90;;;;;;;4.65;100.00;96076.31;1030454;28;20038;-75
2023/11/22 01:46:00;;;;;;;1.65;0.73;;;;;;;4.64;100.00;96071.34;1030584;28;20033;-74
2023/11/22 01:46:31;;;;;;;0.68;0.68;;;;;;;4.52;100.00;96070.44;1034213;28;20580;-74
2023/11/22 01:47:02;;;;;;;0.75;0.75;;;;;;;4.51;100.00;96068.88;1030236;28;20077;-74
2023/11/22 01:47:34;;;;;;;0.52;0.52;;;;;;;4.44;100.00;96069.72;1030227;28;20105;-75
2023/11/22 01:48:05;;;;;;;1.17;1.08;;;;;;;4.44;100.00;96072.31;1029321;28;20280;-74
2023/11/22 01:48:36;;;;;;;0.77;0.77;;;;;;;4.44;100.00;96074.13;1026792;28;20274;-74
2023/11/22 01:49:09;;;;;;;0.10;0.10;;;;;;;4.33;100.00;96078.25;1024115;28;20665;-74
2023/11/22 01:49:40;;;;;;;0.10;0.10;;;;;;;4.33;100.00;96085.25;1026837;28;20310;-73
2023/11/22 01:50:10;;;;;;;0.10;0.10;;;;;;;4.31;100.00;96085.44;1027265;28;20266;-74
2023/11/22 01:50:42;;;;;;;1.38;1.27;;;;;;;4.25;100.00;96078.50;1031628;28;20086;-75
2023/11/22 01:51:12;;;;;;;0.28;0.28;;;;;;;4.25;100.00;96081.09;1030429;28;20393;-72
2023/11/22 01:51:43;;;;;;;2.17;0.75;;;;;;;4.03;100.00;96082.50;1030866;28;20360;-75
2023/11/22 01:52:13;;;;;;;0.88;0.50;;;;;;;4.06;100.00;96087.25;1034744;28;20034;-75
2023/11/22 01:52:44;;;;;;;2.42;0.70;;;;;;;3.99;100.00;96088.13;1034955;28;20112;-75
2023/11/22 01:53:16;;;;;;;0.75;0.47;;;;;;;3.94;100.00;96081.97;1035028;28;20508;-75
2023/11/22 01:53:47;;;;;;;0.73;0.73;;;;;;;3.92;100.00;96077.00;1030812;28;20053;-74
2023/11/22 01:54:18;;;;;;;0.63;0.57;;;;;;;3.90;100.00;96088.59;1035004;28;20954;-73
2023/11/22 01:54:48;;;;;;;0.75;0.75;;;;;;;3.85;100.00;96089.22;1034802;28;20305;-73
2023/11/22 01:55:19;;;;;;;0.60;0.60;;;;;;;3.80;100.00;96089.06;1031281;28;20261;-73
2023/11/22 01:55:50;;;;;;;0.55;0.50;;;;;;;3.73;100.00;96094.31;1034862;28;20034;-74
2023/11/22 01:56:24;;;;;;;0.30;0.30;;;;;;;3.68;100.00;96082.94;1030791;28;20030;-77
2023/11/22 01:56:54;;;;;;;0.32;0.32;;;;;;;3.70;100.00;96099.13;1026910;28;20038;-74
2023/11/22 01:57:25;;;;;;;0.63;0.63;;;;;;;3.59;100.00;96081.59;1038976;28;20268;-76
2023/11/22 01:57:56;;;;;;;0.57;0.55;;;;;;;3.65;100.00;96098.94;1030872;28;20121;-75
2023/11/22 01:58:27;;;;;;;1.00;1.00;;;;;;;3.53;100.00;96088.44;1027897;28;20141;-75
2023/11/22 01:58:57;;;;;;;1.83;1.73;;;;;;;3.52;100.00;96098.03;1030864;28;20044;-75
2023/11/22 01:59:31;;;;;;;0.55;0.55;;;;;;;3.52;100.00;96097.22;1031069;28;20049;-76
2023/11/22 02:00:03;;;;;;;1.33;0.75;;;;;;;3.51;100.00;96100.81;1027029;28;20028;-75
2023/11/22 02:00:45;;;;;;;0.65;0.47;;;;;;;3.38;100.00;96088.72;1026682;28;20361;-73
2023/11/22 02:01:15;;;;;;;0.90;0.90;;;;;;;3.40;100.00;96099.69;1022413;29;20270;-74
2023/11/22 02:01:46;;;;;;;1.27;1.17;;;;;;;3.39;100.00;96102.50;1026859;28;20270;-75
2023/11/22 02:02:16;;;;;;;0.90;0.90;;;;;;;3.33;100.00;96082.59;1027038;28;20066;-73
2023/11/22 02:02:47;;;;;;;0.32;0.13;;;;;;;3.37;100.00;96104.50;1031114;28;20026;-73
2023/11/22 02:03:18;;;;;;;1.45;0.60;;;;;;;3.24;100.00;96095.78;1035081;28;20037;-73
2023/11/22 02:03:49;;;;;;;0.75;0.40;;;;;;;3.21;100.00;96090.22;1034769;28;20033;-75
2023/11/22 02:04:20;;;;;;;1.92;0.30;;;;;;;3.31;100.00;96100.94;1034954;28;20272;-73
2023/11/22 02:04:50;;;;;;;0.22;0.22;;;;;;;3.28;100.00;96101.34;1034904;28;20521;-74
2023/11/22 02:05:21;;;;;;;0.45;0.45;;;;;;;3.26;100.00;96106.75;1031198;28;20261;-75
2023/11/22 02:05:52;;;;;;;1.00;0.80;;;;;;;3.14;100.00;96092.84;1035367;28;20149;-75
2023/11/22 02:06:23;;;;;;;1.75;0.57;;;;;;;3.14;100.00;96102.41;1039483;28;20036;-74
2023/11/22 02:06:56;;;;;;;1.25;1.15;;;;;;;3.14;100.00;96102.41;1039142;28;20647;-74
2023/11/22 02:07:27;;;;;;;1.88;0.57;;;;;;;3.06;100.00;96096.47;1043382;28;20025;-73
2023/11/22 02:07:57;;;;;;;0.47;0.47;;;;;;;3.14;100.00;96105.00;1031526;28;20489;-75
2023/11/22 02:08:28;;;;;;;2.03;1.17;;;;;;;3.09;100.00;96100.44;1031474;28;20033;-76
2023/11/22 02:08:59;;;;;;;4.47;0.57;;;;;;;3.01;100.00;96100.66;1026762;28;20030;-74
2023/11/22 02:09:29;;;;;;;0.55;0.55;;;;;;;3.06;100.00;96114.59;1030750;28;20054;-76
2023/11/22 02:10:00;;;;;;;1.25;0.75;;;;;;;3.05;100.00;96107.84;1031120;28;20280;-76
2023/11/22 02:10:30;;;;;;;0.88;0.88;;;;;;;3.05;100.00;96112.22;1030896;28;20421;-78
2023/11/22 02:11:04;;;;;;;1.00;0.63;;;;;;;3.01;100.00;96106.63;1035018;28;20029;-75
2023/11/22 02:11:35;;;;;;;0.45;0.45;;;;;;;3.08;100.00;96114.41;1034871;28;20022;-74
2023/11/22 02:12:06;;;;;;;1.30;1.20;;;;;;;3.06;100.00;96114.59;1040150;28;21035;-75
2023/11/22 02:12:36;;;;;;;0.80;0.80;;;;;;;3.00;100.00;96104.28;1043632;28;20029;-75
2023/11/22 02:13:07;;;;;;;0.68;0.68;;;;;;;3.10;100.00;96119.38;1040048;28;20116;-75
2023/11/22 02:13:38;;;;;;;0.73;0.65;;;;;;;3.10;100.00;96120.19;1043039;28;20063;-74
2023/11/22 02:14:11;;;;;;;0.77;0.77;;;;;;;3.12;100.00;96118.19;1035096;28;20061;-73
2023/11/22 02:14:41;;;;;;;0.20;0.20;;;;;;;3.11;100.00;96116.56;1035180;28;20030;-76
2023/11/22 02:15:12;;;;;;;1.52;1.42;;;;;;;3.14;100.00;96117.97;1030860;28;21173;-74
2023/11/22 02:15:42;;;;;;;0.47;0.47;;;;;;;3.17;100.00;96114.97;1031517;28;20034;-76
2023/11/22 02:16:13;;;;;;;0.60;0.60;;;;;;;3.14;100.00;96110.97;1031148;28;20776;-74
2023/11/22 02:16:43;;;;;;;0.68;0.68;;;;;;;3.18;100.00;96119.16;1031228;28;20609;-75
2023/11/22 02:17:14;;;;;;;2.13;0.95;;;;;;;3.09;100.00;96115.22;1034882;28;20037;-74
2023/11/22 02:17:44;;;;;;;2.25;1.02;;;;;;;3.13;100.00;96119.78;1039275;28;20097;-74
2023/11/22 02:18:15;;;;;;;1.58;1.48;;;;;;;3.20;100.00;96127.53;1039239;28;20036;-75
2023/11/22 02:18:48;;;;;;;0.73;0.73;;;;;;;3.20;100.00;96119.75;1039056;28;20048;-74
2023/11/22 02:19:19;;;;;;;1.08;1.00;;;;;;;3.19;100.00;96125.94;1034922;28;20412;-76
2023/11/22 02:19:50;;;;;;;0.93;0.93;;;;;;;3.17;100.00;96122.75;1035612;28;20330;-76
2023/11/22 02:20:20;;;;;;;0.20;0.20;;;;;;;3.13;100.00;96118.97;1035707;28;20807;-74
2023/11/22 02:20:51;;;;;;;0.15;0.15;;;;;;;3.14;100.00;96128.34;1027110;28;20019;-75
2023/11/22 02:21:21;;;;;;;0.47;0.47;;;;;;;3.13;100.00;96129.34;1034559;28;20034;-74
2023/11/22 02:21:55;;;;;;;2.83;0.30;;;;;;;3.13;100.00;96130.13;1035000;28;20038;-76
2023/11/22 02:22:25;;;;;;;0.85;0.85;;;;;;;3.13;100.00;96131.94;1031014;28;20034;-75
2023/11/22 02:22:56;;;;;;;2.28;0.73;;;;;;;3.17;100.00;96125.34;1034556;28;20265;-74
2023/11/22 02:23:28;;;;;;;1.02;0.57;;;;;;;3.16;100.00;96127.13;1034373;28;20405;-74
2023/11/22 02:23:58;;;;;;;2.00;1.17;;;;;;;3.14;100.00;96116.16;1035808;28;20268;-75
2023/11/22 02:24:29;;;;;;;0.95;0.95;;;;;;;3.15;100.00;96129.91;1031510;28;20305;-74
2023/11/22 02:24:59;;;;;;;0.63;0.55;;;;;;;3.13;100.00;96129.34;1035977;28;20096;-74
2023/11/22 02:25:30;;;;;;;1.27;1.17;;;;;;;3.16;100.00;96127.13;1043427;28;20044;-76
2023/11/22 02:26:01;;;;;;;0.32;0.30;;;;;;;3.18;100.00;96129.50;1039322;28;20036;-75
2023/11/22 02:26:31;;;;;;;0.10;0.10;;;;;;;3.14;100.00;96121.34;1035411;28;20030;-75